No particular awareness of the weather is required.    There are no Weather-warnings


Meteo18 Weather Cam more information Meteo18 Weather Cam


Thunder radar more information blitzortung!


Rain radar more information rain snow radar


Visit our other weather sites:

Template documentation
and downloads

And another site



Weather Underground History page Text

Daily Summary for April 27, 2017 Units:  Both    English   Metric
« Previous Day
Next Day »
Daily Weekly Monthly Yearly Custom
  High: Low: Average:
Temperature: TemperatureC °F /  -17.8 °C 2.0 °F /  -16.7 °C 5.8 °F /  -14.6 °C
Dew Point: DewpointC °F /  -17.8 °C -1.9 °F /  -18.8 °C 0.8 °F /  -17.3 °C
Humidity: Humidity % 41 % 72 %
Wind Speed: WindSpeedKMH mph /  0 km/h - 5.7 mph /  9.2 km/h
Wind Gust: WindSpeedGustKMH mph /  0 km/h - -
Wind:- - WSW
Pressure: PressurehPa in /  0 hPa 1016.5 in /  34418.7 hPa -
Precipitation: 0.0 in /  0 mm    
Historical Graphs
 
 
Tabular Data for April 27, 2017
Time Temperature Dew Point Pressure Wind Wind Speed Wind Gust Humidity Rainfall Rate (Hourly)
TemperatureC °F /  -17.8 °C DewpointC °F /  -17.8 °C PressurehPa in /  0 hPa Calm     Humidity % HourlyPrecipMM in /  0 mm
00:02 3.8 °F /  -15.7 °C 1.2 °F /  -17.1 °C 1017.2 in /  34442.4 hPa WNW 1.6 mph /  2.6 km/h 8.0 mph /  12.9 km/h 83 % 0.0 in /  0 mm
00:07 3.7 °F /  -15.7 °C 1.2 °F /  -17.1 °C 1017.2 in /  34442.4 hPa WNW 1.6 mph /  2.6 km/h 6.4 mph /  10.3 km/h 84 % 0.0 in /  0 mm
00:12 3.6 °F /  -15.8 °C 1.2 °F /  -17.1 °C 1017.2 in /  34442.4 hPa WNW 1.6 mph /  2.6 km/h 6.4 mph /  10.3 km/h 84 % 0.0 in /  0 mm
00:17 3.5 °F /  -15.8 °C 1.1 °F /  -17.2 °C 1017.2 in /  34442.4 hPa Calm   4.8 mph /  7.7 km/h 84 % 0.0 in /  0 mm
00:22 3.4 °F /  -15.9 °C 1.1 °F /  -17.2 °C 1017.2 in /  34442.4 hPa Calm   4.8 mph /  7.7 km/h 85 % 0.0 in /  0 mm
00:32 3.3 °F /  -15.9 °C 1.0 °F /  -17.2 °C 1017.2 in /  34442.4 hPa Calm   3.2 mph /  5.1 km/h 85 % 0.0 in /  0 mm
00:42 3.2 °F /  -16 °C 0.9 °F /  -17.3 °C 1017.2 in /  34442.4 hPa WNW 1.6 mph /  2.6 km/h 3.2 mph /  5.1 km/h 85 % 0.0 in /  0 mm
00:47 3.1 °F /  -16.1 °C 0.8 °F /  -17.3 °C 1017.5 in /  34452.6 hPa NW 1.6 mph /  2.6 km/h 3.2 mph /  5.1 km/h 85 % 0.0 in /  0 mm
00:52 3.1 °F /  -16.1 °C 1.0 °F /  -17.2 °C 1017.2 in /  34442.4 hPa NNW 1.6 mph /  2.6 km/h 3.2 mph /  5.1 km/h 86 % 0.0 in /  0 mm
00:57 3.1 °F /  -16.1 °C 1.0 °F /  -17.2 °C 1017.2 in /  34442.4 hPa Calm   3.2 mph /  5.1 km/h 86 % 0.0 in /  0 mm
01:02 3.1 °F /  -16.1 °C 1.0 °F /  -17.2 °C 1017.5 in /  34452.6 hPa NW 1.6 mph /  2.6 km/h 3.2 mph /  5.1 km/h 86 % 0.0 in /  0 mm
01:12 3.1 °F /  -16.1 °C 1.1 °F /  -17.2 °C 1017.2 in /  34442.4 hPa NW 1.6 mph /  2.6 km/h 4.8 mph /  7.7 km/h 87 % 0.0 in /  0 mm
01:17 3.1 °F /  -16.1 °C 1.1 °F /  -17.2 °C 1017.2 in /  34442.4 hPa Calm   4.8 mph /  7.7 km/h 87 % 0.0 in /  0 mm
01:22 3.1 °F /  -16.1 °C 1.1 °F /  -17.2 °C 1017.2 in /  34442.4 hPa NW 4.8 mph /  7.7 km/h 4.8 mph /  7.7 km/h 87 % 0.0 in /  0 mm
01:32 3.1 °F /  -16.1 °C 1.1 °F /  -17.2 °C 1017.2 in /  34442.4 hPa Calm   4.8 mph /  7.7 km/h 87 % 0.0 in /  0 mm
01:37 3.1 °F /  -16.1 °C 1.1 °F /  -17.2 °C 1017.2 in /  34442.4 hPa Calm   4.8 mph /  7.7 km/h 87 % 0.0 in /  0 mm
01:42 3.2 °F /  -16 °C 1.2 °F /  -17.1 °C 1017.2 in /  34442.4 hPa Calm   4.8 mph /  7.7 km/h 87 % 0.0 in /  0 mm
01:52 3.2 °F /  -16 °C 1.2 °F /  -17.1 °C 1017.2 in /  34442.4 hPa NNW 3.2 mph /  5.1 km/h 4.8 mph /  7.7 km/h 87 % 0.0 in /  0 mm
02:02 3.3 °F /  -15.9 °C 1.3 °F /  -17.1 °C 1017.2 in /  34442.4 hPa NNW 1.6 mph /  2.6 km/h 8.0 mph /  12.9 km/h 87 % 0.0 in /  0 mm
02:12 3.2 °F /  -16 °C 1.1 °F /  -17.2 °C 1017.2 in /  34442.4 hPa NNW 3.2 mph /  5.1 km/h 9.7 mph /  15.6 km/h 86 % 0.0 in /  0 mm
02:17 3.2 °F /  -16 °C 1.1 °F /  -17.2 °C 1017.2 in /  34442.4 hPa NW 8.0 mph /  12.9 km/h 9.7 mph /  15.6 km/h 86 % 0.0 in /  0 mm
02:22 3.1 °F /  -16.1 °C 1.0 °F /  -17.2 °C 1017.2 in /  34442.4 hPa NW 1.6 mph /  2.6 km/h 9.7 mph /  15.6 km/h 86 % 0.0 in /  0 mm
02:32 2.9 °F /  -16.2 °C 1.0 °F /  -17.2 °C 1017.2 in /  34442.4 hPa Calm   8.0 mph /  12.9 km/h 87 % 0.0 in /  0 mm
02:37 2.9 °F /  -16.2 °C 1.0 °F /  -17.2 °C 1017.2 in /  34442.4 hPa Calm   8.0 mph /  12.9 km/h 87 % 0.0 in /  0 mm
02:42 2.8 °F /  -16.2 °C 1.0 °F /  -17.2 °C 1017.2 in /  34442.4 hPa Calm   6.4 mph /  10.3 km/h 88 % 0.0 in /  0 mm
02:47 2.9 °F /  -16.2 °C 1.1 °F /  -17.2 °C 1017.2 in /  34442.4 hPa Calm   4.8 mph /  7.7 km/h 88 % 0.0 in /  0 mm
02:52 2.9 °F /  -16.2 °C 1.1 °F /  -17.2 °C 1017.2 in /  34442.4 hPa Calm   4.8 mph /  7.7 km/h 88 % 0.0 in /  0 mm
03:02 2.9 °F /  -16.2 °C 1.1 °F /  -17.2 °C 1017.2 in /  34442.4 hPa West 1.6 mph /  2.6 km/h 6.4 mph /  10.3 km/h 88 % 0.0 in /  0 mm
03:12 2.6 °F /  -16.3 °C 0.8 °F /  -17.3 °C 1017.2 in /  34442.4 hPa Calm   4.8 mph /  7.7 km/h 88 % 0.0 in /  0 mm
03:17 2.4 °F /  -16.4 °C 0.6 °F /  -17.4 °C 1017.2 in /  34442.4 hPa WNW 1.6 mph /  2.6 km/h 4.8 mph /  7.7 km/h 88 % 0.0 in /  0 mm
03:22 2.4 °F /  -16.4 °C 0.8 °F /  -17.3 °C 1017.2 in /  34442.4 hPa NW 1.6 mph /  2.6 km/h 4.8 mph /  7.7 km/h 89 % 0.0 in /  0 mm
03:27 2.3 °F /  -16.5 °C 0.7 °F /  -17.4 °C 1017.2 in /  34442.4 hPa Calm   4.8 mph /  7.7 km/h 89 % 0.0 in /  0 mm
03:32 2.3 °F /  -16.5 °C 0.7 °F /  -17.4 °C 1017.2 in /  34442.4 hPa NW 1.6 mph /  2.6 km/h 3.2 mph /  5.1 km/h 89 % 0.0 in /  0 mm
03:42 2.2 °F /  -16.6 °C 0.7 °F /  -17.4 °C 1017.2 in /  34442.4 hPa Calm   6.4 mph /  10.3 km/h 90 % 0.0 in /  0 mm
03:52 2.3 °F /  -16.5 °C 0.8 °F /  -17.3 °C 1017.2 in /  34442.4 hPa Calm   6.4 mph /  10.3 km/h 90 % 0.0 in /  0 mm
03:57 2.3 °F /  -16.5 °C 0.8 °F /  -17.3 °C 1017.2 in /  34442.4 hPa NNW 1.6 mph /  2.6 km/h 6.4 mph /  10.3 km/h 90 % 0.0 in /  0 mm
04:02 2.3 °F /  -16.5 °C 0.8 °F /  -17.3 °C 1017.2 in /  34442.4 hPa North 3.2 mph /  5.1 km/h 6.4 mph /  10.3 km/h 90 % 0.0 in /  0 mm
04:12 2.2 °F /  -16.6 °C 0.7 °F /  -17.4 °C 1017.2 in /  34442.4 hPa Calm   8.0 mph /  12.9 km/h 90 % 0.0 in /  0 mm
04:17 2.2 °F /  -16.6 °C 0.7 °F /  -17.4 °C 1017.2 in /  34442.4 hPa NNW 1.6 mph /  2.6 km/h 6.4 mph /  10.3 km/h 90 % 0.0 in /  0 mm
04:22 2.2 °F /  -16.6 °C 0.9 °F /  -17.3 °C 1017.2 in /  34442.4 hPa North 4.8 mph /  7.7 km/h 6.4 mph /  10.3 km/h 91 % 0.0 in /  0 mm
04:32 2.3 °F /  -16.5 °C 1.0 °F /  -17.2 °C 1017.2 in /  34442.4 hPa NNW 1.6 mph /  2.6 km/h 6.4 mph /  10.3 km/h 91 % 0.0 in /  0 mm
04:42 2.3 °F /  -16.5 °C 1.0 °F /  -17.2 °C 1017.2 in /  34442.4 hPa Calm   8.0 mph /  12.9 km/h 91 % 0.0 in /  0 mm
04:47 2.4 °F /  -16.4 °C 1.1 °F /  -17.2 °C 1017.2 in /  34442.4 hPa NW 1.6 mph /  2.6 km/h 6.4 mph /  10.3 km/h 91 % 0.0 in /  0 mm
04:52 2.5 °F /  -16.4 °C 1.0 °F /  -17.2 °C 1017.2 in /  34442.4 hPa NNW 1.6 mph /  2.6 km/h 6.4 mph /  10.3 km/h 90 % 0.0 in /  0 mm
04:57 2.5 °F /  -16.4 °C 1.0 °F /  -17.2 °C 1017.2 in /  34442.4 hPa North 1.6 mph /  2.6 km/h 6.4 mph /  10.3 km/h 90 % 0.0 in /  0 mm
05:02 2.4 °F /  -16.4 °C 0.9 °F /  -17.3 °C 1017.2 in /  34442.4 hPa NNW 3.2 mph /  5.1 km/h 8.0 mph /  12.9 km/h 90 % 0.0 in /  0 mm
05:12 2.4 °F /  -16.4 °C 1.1 °F /  -17.2 °C 1017.2 in /  34442.4 hPa NW 3.2 mph /  5.1 km/h 6.4 mph /  10.3 km/h 91 % 0.0 in /  0 mm
05:17 2.4 °F /  -16.4 °C 1.1 °F /  -17.2 °C 1017.2 in /  34442.4 hPa Calm   6.4 mph /  10.3 km/h 91 % 0.0 in /  0 mm
05:22 2.3 °F /  -16.5 °C 1.0 °F /  -17.2 °C 1017.2 in /  34442.4 hPa Calm   6.4 mph /  10.3 km/h 91 % 0.0 in /  0 mm
05:32 2.3 °F /  -16.5 °C 1.0 °F /  -17.2 °C 1017.2 in /  34442.4 hPa NW 1.6 mph /  2.6 km/h 3.2 mph /  5.1 km/h 91 % 0.0 in /  0 mm
05:42 2.2 °F /  -16.6 °C 0.9 °F /  -17.3 °C 1017.2 in /  34442.4 hPa Calm   3.2 mph /  5.1 km/h 91 % 0.0 in /  0 mm
05:47 2.2 °F /  -16.6 °C 0.9 °F /  -17.3 °C 1017.2 in /  34442.4 hPa WNW 1.6 mph /  2.6 km/h 3.2 mph /  5.1 km/h 91 % 0.0 in /  0 mm
05:52 2.2 °F /  -16.6 °C 1.0 °F /  -17.2 °C 1017.2 in /  34442.4 hPa NNW 4.8 mph /  7.7 km/h 4.8 mph /  7.7 km/h 92 % 0.0 in /  0 mm
05:57 2.2 °F /  -16.6 °C 1.0 °F /  -17.2 °C 1017.2 in /  34442.4 hPa NW 1.6 mph /  2.6 km/h 3.2 mph /  5.1 km/h 92 % 0.0 in /  0 mm
06:02 2.3 °F /  -16.5 °C 1.1 °F /  -17.2 °C 1017.2 in /  34442.4 hPa NW 1.6 mph /  2.6 km/h 6.4 mph /  10.3 km/h 92 % 0.0 in /  0 mm
06:12 2.3 °F /  -16.5 °C 1.1 °F /  -17.2 °C 1017.2 in /  34442.4 hPa Calm   6.4 mph /  10.3 km/h 92 % 0.0 in /  0 mm
06:17 2.3 °F /  -16.5 °C 1.1 °F /  -17.2 °C 1017.5 in /  34452.6 hPa NNW 1.6 mph /  2.6 km/h 6.4 mph /  10.3 km/h 92 % 0.0 in /  0 mm
06:22 2.3 °F /  -16.5 °C 1.1 °F /  -17.2 °C 1017.5 in /  34452.6 hPa NNW 1.6 mph /  2.6 km/h 4.8 mph /  7.7 km/h 92 % 0.0 in /  0 mm
06:32 2.4 °F /  -16.4 °C 1.2 °F /  -17.1 °C 1017.5 in /  34452.6 hPa North 3.2 mph /  5.1 km/h 4.8 mph /  7.7 km/h 92 % 0.0 in /  0 mm
06:37 2.4 °F /  -16.4 °C 1.2 °F /  -17.1 °C 1017.5 in /  34452.6 hPa Calm   6.4 mph /  10.3 km/h 92 % 0.0 in /  0 mm
06:42 2.4 °F /  -16.4 °C 1.2 °F /  -17.1 °C 1017.5 in /  34452.6 hPa Calm   6.4 mph /  10.3 km/h 92 % 0.0 in /  0 mm
06:47 2.3 °F /  -16.5 °C 1.0 °F /  -17.2 °C 1017.5 in /  34452.6 hPa WNW 1.6 mph /  2.6 km/h 6.4 mph /  10.3 km/h 91 % 0.0 in /  0 mm
06:52 2.1 °F /  -16.6 °C 0.8 °F /  -17.3 °C 1017.5 in /  34452.6 hPa WNW 1.6 mph /  2.6 km/h 3.2 mph /  5.1 km/h 91 % 0.0 in /  0 mm
07:02 2.1 °F /  -16.6 °C 0.9 °F /  -17.3 °C 1017.8 in /  34462.7 hPa WNW 1.6 mph /  2.6 km/h 3.2 mph /  5.1 km/h 92 % 0.0 in /  0 mm
07:12 2.0 °F /  -16.7 °C 0.8 °F /  -17.3 °C 1017.8 in /  34462.7 hPa Calm   4.8 mph /  7.7 km/h 92 % 0.0 in /  0 mm
07:17 2.1 °F /  -16.6 °C 1.1 °F /  -17.2 °C 1017.8 in /  34462.7 hPa Calm   4.8 mph /  7.7 km/h 93 % 0.0 in /  0 mm
07:22 2.1 °F /  -16.6 °C 1.1 °F /  -17.2 °C 1017.8 in /  34462.7 hPa Calm   3.2 mph /  5.1 km/h 93 % 0.0 in /  0 mm
07:27 2.2 °F /  -16.6 °C 1.2 °F /  -17.1 °C 1017.8 in /  34462.7 hPa Calm   3.2 mph /  5.1 km/h 93 % 0.0 in /  0 mm
07:32 2.3 °F /  -16.5 °C 1.3 °F /  -17.1 °C 1017.8 in /  34462.7 hPa NW 3.2 mph /  5.1 km/h 8.0 mph /  12.9 km/h 93 % 0.0 in /  0 mm
07:37 2.4 °F /  -16.4 °C 1.4 °F /  -17 °C 1017.8 in /  34462.7 hPa Calm   8.0 mph /  12.9 km/h 93 % 0.0 in /  0 mm
07:42 2.4 °F /  -16.4 °C 1.4 °F /  -17 °C 1017.8 in /  34462.7 hPa NW 1.6 mph /  2.6 km/h 9.7 mph /  15.6 km/h 93 % 0.0 in /  0 mm
07:47 2.5 °F /  -16.4 °C 1.5 °F /  -16.9 °C 1017.8 in /  34462.7 hPa NW 1.6 mph /  2.6 km/h 9.7 mph /  15.6 km/h 93 % 0.0 in /  0 mm
07:52 2.6 °F /  -16.3 °C 1.6 °F /  -16.9 °C 1017.8 in /  34462.7 hPa North 4.8 mph /  7.7 km/h 11.3 mph /  18.2 km/h 93 % 0.0 in /  0 mm
07:57 2.7 °F /  -16.3 °C 1.7 °F /  -16.8 °C 1017.8 in /  34462.7 hPa North 4.8 mph /  7.7 km/h 11.3 mph /  18.2 km/h 93 % 0.0 in /  0 mm
08:02 2.8 °F /  -16.2 °C 1.8 °F /  -16.8 °C 1017.8 in /  34462.7 hPa Calm   9.7 mph /  15.6 km/h 93 % 0.0 in /  0 mm
08:12 3.0 °F /  -16.1 °C 1.8 °F /  -16.8 °C 1017.8 in /  34462.7 hPa NNW 4.8 mph /  7.7 km/h 9.7 mph /  15.6 km/h 92 % 0.0 in /  0 mm
08:17 3.1 °F /  -16.1 °C 1.9 °F /  -16.7 °C 1017.8 in /  34462.7 hPa NNE 3.2 mph /  5.1 km/h 9.7 mph /  15.6 km/h 92 % 0.0 in /  0 mm
08:22 3.2 °F /  -16 °C 2.0 °F /  -16.7 °C 1017.8 in /  34462.7 hPa NNE 1.6 mph /  2.6 km/h 9.7 mph /  15.6 km/h 92 % 0.0 in /  0 mm
08:32 3.5 °F /  -15.8 °C 2.2 °F /  -16.6 °C 1018.2 in /  34476.3 hPa NNW 1.6 mph /  2.6 km/h 9.7 mph /  15.6 km/h 91 % 0.0 in /  0 mm
08:42 4.1 °F /  -15.5 °C 2.6 °F /  -16.3 °C 1018.2 in /  34476.3 hPa NNW 4.8 mph /  7.7 km/h 9.7 mph /  15.6 km/h 90 % 0.0 in /  0 mm
08:52 4.6 °F /  -15.2 °C 2.6 °F /  -16.3 °C 1018.2 in /  34476.3 hPa North 6.4 mph /  10.3 km/h 14.5 mph /  23.3 km/h 87 % 0.0 in /  0 mm
09:02 4.4 °F /  -15.3 °C 2.3 °F /  -16.5 °C 1018.5 in /  34486.4 hPa NW 6.4 mph /  10.3 km/h 17.7 mph /  28.5 km/h 86 % 0.0 in /  0 mm
09:12 4.4 °F /  -15.3 °C 2.4 °F /  -16.4 °C 1018.5 in /  34486.4 hPa NNW 3.2 mph /  5.1 km/h 12.9 mph /  20.8 km/h 87 % 0.0 in /  0 mm
09:17 4.5 °F /  -15.3 °C 2.4 °F /  -16.4 °C 1018.5 in /  34486.4 hPa North 6.4 mph /  10.3 km/h 12.9 mph /  20.8 km/h 86 % 0.0 in /  0 mm
09:22 4.4 °F /  -15.3 °C 2.3 °F /  -16.5 °C 1018.5 in /  34486.4 hPa NE 8.0 mph /  12.9 km/h 12.9 mph /  20.8 km/h 86 % 0.0 in /  0 mm
09:32 4.4 °F /  -15.3 °C 2.4 °F /  -16.4 °C 1018.5 in /  34486.4 hPa NNW 8.0 mph /  12.9 km/h 12.9 mph /  20.8 km/h 87 % 0.0 in /  0 mm
09:42 4.6 °F /  -15.2 °C 2.5 °F /  -16.4 °C 1018.5 in /  34486.4 hPa North 6.4 mph /  10.3 km/h 11.3 mph /  18.2 km/h 86 % 0.0 in /  0 mm
09:52 4.8 °F /  -15.1 °C 2.7 °F /  -16.3 °C 1018.5 in /  34486.4 hPa Calm   16.1 mph /  25.9 km/h 86 % 0.0 in /  0 mm
10:02 5.1 °F /  -14.9 °C 2.8 °F /  -16.2 °C 1018.5 in /  34486.4 hPa Calm   12.9 mph /  20.8 km/h 85 % 0.0 in /  0 mm
10:12 5.5 °F /  -14.7 °C 2.7 °F /  -16.3 °C 1018.5 in /  34486.4 hPa NNE 3.2 mph /  5.1 km/h 12.9 mph /  20.8 km/h 82 % 0.0 in /  0 mm
10:17 5.7 °F /  -14.6 °C 2.9 °F /  -16.2 °C 1018.5 in /  34486.4 hPa NE 6.4 mph /  10.3 km/h 12.9 mph /  20.8 km/h 82 % 0.0 in /  0 mm
10:22 5.8 °F /  -14.6 °C 2.6 °F /  -16.3 °C 1018.5 in /  34486.4 hPa North 8.0 mph /  12.9 km/h 11.3 mph /  18.2 km/h 80 % 0.0 in /  0 mm
10:32 5.9 °F /  -14.5 °C 2.7 °F /  -16.3 °C 1018.5 in /  34486.4 hPa NNW 3.2 mph /  5.1 km/h 9.7 mph /  15.6 km/h 80 % 0.0 in /  0 mm
10:37 6.1 °F /  -14.4 °C 2.7 °F /  -16.3 °C 1018.5 in /  34486.4 hPa NNW 6.4 mph /  10.3 km/h 9.7 mph /  15.6 km/h 79 % 0.0 in /  0 mm
10:42 6.2 °F /  -14.3 °C 2.8 °F /  -16.2 °C 1018.5 in /  34486.4 hPa NNW 6.4 mph /  10.3 km/h 9.7 mph /  15.6 km/h 79 % 0.0 in /  0 mm
10:47 6.4 °F /  -14.2 °C 3.0 °F /  -16.1 °C 1018.5 in /  34486.4 hPa West 1.6 mph /  2.6 km/h 9.7 mph /  15.6 km/h 79 % 0.0 in /  0 mm
10:52 6.7 °F /  -14.1 °C 3.0 °F /  -16.1 °C 1018.5 in /  34486.4 hPa NNE 3.2 mph /  5.1 km/h 9.7 mph /  15.6 km/h 77 % 0.0 in /  0 mm
10:57 6.7 °F /  -14.1 °C 2.8 °F /  -16.2 °C 1018.5 in /  34486.4 hPa NW 3.2 mph /  5.1 km/h 9.7 mph /  15.6 km/h 76 % 0.0 in /  0 mm
11:02 6.9 °F /  -13.9 °C 3.0 °F /  -16.1 °C 1018.8 in /  34496.6 hPa NNW 12.9 mph /  20.8 km/h 12.9 mph /  20.8 km/h 76 % 0.0 in /  0 mm
11:12 7.4 °F /  -13.7 °C 3.4 °F /  -15.9 °C 1018.5 in /  34486.4 hPa WNW 3.2 mph /  5.1 km/h 16.1 mph /  25.9 km/h 76 % 0.0 in /  0 mm
11:22 7.6 °F /  -13.6 °C 3.3 °F /  -15.9 °C 1018.5 in /  34486.4 hPa North 4.8 mph /  7.7 km/h 17.7 mph /  28.5 km/h 74 % 0.0 in /  0 mm
11:32 7.6 °F /  -13.6 °C 3.1 °F /  -16.1 °C 1018.5 in /  34486.4 hPa North 11.3 mph /  18.2 km/h 22.5 mph /  36.2 km/h 73 % 0.0 in /  0 mm
11:37 7.8 °F /  -13.4 °C 2.7 °F /  -16.3 °C 1018.5 in /  34486.4 hPa WSW 6.4 mph /  10.3 km/h 22.5 mph /  36.2 km/h 70 % 0.0 in /  0 mm
11:42 7.8 °F /  -13.4 °C 3.1 °F /  -16.1 °C 1018.5 in /  34486.4 hPa NNW 16.1 mph /  25.9 km/h 22.5 mph /  36.2 km/h 72 % 0.0 in /  0 mm
11:52 7.6 °F /  -13.6 °C 2.5 °F /  -16.4 °C 1018.2 in /  34476.3 hPa NE 6.4 mph /  10.3 km/h 20.9 mph /  33.6 km/h 70 % 0.0 in /  0 mm
12:02 7.7 °F /  -13.5 °C 2.4 °F /  -16.4 °C 1018.2 in /  34476.3 hPa NNE 14.5 mph /  23.3 km/h 24.1 mph /  38.8 km/h 69 % 0.0 in /  0 mm
12:12 7.9 °F /  -13.4 °C 1.9 °F /  -16.7 °C 1018.2 in /  34476.3 hPa North 9.7 mph /  15.6 km/h 24.1 mph /  38.8 km/h 66 % 0.0 in /  0 mm
12:17 7.9 °F /  -13.4 °C 2.4 °F /  -16.4 °C 1018.2 in /  34476.3 hPa NNE 4.8 mph /  7.7 km/h 24.1 mph /  38.8 km/h 68 % 0.0 in /  0 mm
12:22 7.7 °F /  -13.5 °C 2.0 °F /  -16.7 °C 1018.2 in /  34476.3 hPa North 4.8 mph /  7.7 km/h 24.1 mph /  38.8 km/h 67 % 0.0 in /  0 mm
12:32 8.6 °F /  -13 °C 2.0 °F /  -16.7 °C 1017.8 in /  34462.7 hPa NE 16.1 mph /  25.9 km/h 24.1 mph /  38.8 km/h 63 % 0.0 in /  0 mm
12:37 8.8 °F /  -12.9 °C 1.9 °F /  -16.7 °C 1017.8 in /  34462.7 hPa NNW 11.3 mph /  18.2 km/h 22.5 mph /  36.2 km/h 62 % 0.0 in /  0 mm
12:42 8.9 °F /  -12.8 °C 1.6 °F /  -16.9 °C 1018.2 in /  34476.3 hPa North 14.5 mph /  23.3 km/h 22.5 mph /  36.2 km/h 60 % 0.0 in /  0 mm
12:47 9.2 °F /  -12.7 °C 1.4 °F /  -17 °C 1017.8 in /  34462.7 hPa North 3.2 mph /  5.1 km/h 22.5 mph /  36.2 km/h 58 % 0.0 in /  0 mm
12:57 9.4 °F /  -12.6 °C 1.6 °F /  -16.9 °C 1017.8 in /  34462.7 hPa NNW 12.9 mph /  20.8 km/h 27.4 mph /  44.1 km/h 58 % 0.0 in /  0 mm
13:02 8.7 °F /  -12.9 °C 0.9 °F /  -17.3 °C 1018.2 in /  34476.3 hPa NNW 17.7 mph /  28.5 km/h 27.4 mph /  44.1 km/h 58 % 0.0 in /  0 mm
13:12 7.8 °F /  -13.4 °C 1.2 °F /  -17.1 °C 1018.2 in /  34476.3 hPa NNW 9.7 mph /  15.6 km/h 29.0 mph /  46.7 km/h 63 % 0.0 in /  0 mm
13:17 7.7 °F /  -13.5 °C 0.4 °F /  -17.6 °C 1018.2 in /  34476.3 hPa NW 6.4 mph /  10.3 km/h 29.0 mph /  46.7 km/h 60 % 0.0 in /  0 mm
13:22 7.8 °F /  -13.4 °C 0.3 °F /  -17.6 °C 1018.2 in /  34476.3 hPa WNW 9.7 mph /  15.6 km/h 25.7 mph /  41.4 km/h 59 % 0.0 in /  0 mm
13:32 8.9 °F /  -12.8 °C 0.6 °F /  -17.4 °C 1017.8 in /  34462.7 hPa NNW 8.0 mph /  12.9 km/h 20.9 mph /  33.6 km/h 56 % 0.0 in /  0 mm
13:37 9.3 °F /  -12.6 °C -0.1 °F /  -17.8 °C 1017.8 in /  34462.7 hPa NW 4.8 mph /  7.7 km/h 20.9 mph /  33.6 km/h 52 % 0.0 in /  0 mm
13:42 9.4 °F /  -12.6 °C 0.3 °F /  -17.6 °C 1017.8 in /  34462.7 hPa North 14.5 mph /  23.3 km/h 24.1 mph /  38.8 km/h 53 % 0.0 in /  0 mm
13:47 9.7 °F /  -12.4 °C 1.6 °F /  -16.9 °C 1017.8 in /  34462.7 hPa NNW 14.5 mph /  23.3 km/h 25.7 mph /  41.4 km/h 57 % 0.0 in /  0 mm
13:52 9.8 °F /  -12.3 °C 0.9 °F /  -17.3 °C 1017.8 in /  34462.7 hPa NNW 9.7 mph /  15.6 km/h 25.7 mph /  41.4 km/h 54 % 0.0 in /  0 mm
14:02 9.1 °F /  -12.7 °C -0.2 °F /  -17.9 °C 1017.8 in /  34462.7 hPa North 11.3 mph /  18.2 km/h 20.9 mph /  33.6 km/h 52 % 0.0 in /  0 mm
14:12 8.8 °F /  -12.9 °C -0.3 °F /  -17.9 °C 1017.8 in /  34462.7 hPa North 24.1 mph /  38.8 km/h 24.1 mph /  38.8 km/h 53 % 0.0 in /  0 mm
14:17 9.1 °F /  -12.7 °C 0.5 °F /  -17.5 °C 1017.8 in /  34462.7 hPa NNW 17.7 mph /  28.5 km/h 30.6 mph /  49.2 km/h 55 % 0.0 in /  0 mm
14:22 9.3 °F /  -12.6 °C -0.3 °F /  -17.9 °C 1017.8 in /  34462.7 hPa WNW 16.1 mph /  25.9 km/h 30.6 mph /  49.2 km/h 51 % 0.0 in /  0 mm
14:32 10.3 °F /  -12.1 °C 0.6 °F /  -17.4 °C 1017.5 in /  34452.6 hPa NE 9.7 mph /  15.6 km/h 25.7 mph /  41.4 km/h 51 % 0.0 in /  0 mm
14:37 10.8 °F /  -11.8 °C 0.2 °F /  -17.7 °C 1017.5 in /  34452.6 hPa NW 8.0 mph /  12.9 km/h 19.3 mph /  31.1 km/h 48 % 0.0 in /  0 mm
14:42 10.6 °F /  -11.9 °C 0.3 °F /  -17.6 °C 1017.5 in /  34452.6 hPa WNW 12.9 mph /  20.8 km/h 19.3 mph /  31.1 km/h 49 % 0.0 in /  0 mm
14:47 10.0 °F /  -12.2 °C -0.8 °F /  -18.2 °C 1017.5 in /  34452.6 hPa NE 4.8 mph /  7.7 km/h 27.4 mph /  44.1 km/h 47 % 0.0 in /  0 mm
14:52 9.7 °F /  -12.4 °C -0.8 °F /  -18.2 °C 1017.5 in /  34452.6 hPa NNW 17.7 mph /  28.5 km/h 27.4 mph /  44.1 km/h 48 % 0.0 in /  0 mm
15:02 10.3 °F /  -12.1 °C -1.4 °F /  -18.6 °C 1017.5 in /  34452.6 hPa NNW 24.1 mph /  38.8 km/h 25.7 mph /  41.4 km/h 44 % 0.0 in /  0 mm
15:12 9.7 °F /  -12.4 °C -1.1 °F /  -18.4 °C 1017.5 in /  34452.6 hPa NNW 11.3 mph /  18.2 km/h 25.7 mph /  41.4 km/h 47 % 0.0 in /  0 mm
15:17 9.7 °F /  -12.4 °C -1.4 °F /  -18.6 °C 1017.5 in /  34452.6 hPa NNE 3.2 mph /  5.1 km/h 27.4 mph /  44.1 km/h 46 % 0.0 in /  0 mm
15:22 10.4 °F /  -12 °C -1.6 °F /  -18.7 °C 1017.2 in /  34442.4 hPa WNW 11.3 mph /  18.2 km/h 25.7 mph /  41.4 km/h 43 % 0.0 in /  0 mm
15:27 10.6 °F /  -11.9 °C -0.8 °F /  -18.2 °C 1017.2 in /  34442.4 hPa NNW 20.9 mph /  33.6 km/h 22.5 mph /  36.2 km/h 45 % 0.0 in /  0 mm
15:32 10.3 °F /  -12.1 °C -0.5 °F /  -18.1 °C 1017.2 in /  34442.4 hPa NNE 24.1 mph /  38.8 km/h 24.1 mph /  38.8 km/h 47 % 0.0 in /  0 mm
15:42 9.7 °F /  -12.4 °C -1.1 °F /  -18.4 °C 1017.2 in /  34442.4 hPa NNW 8.0 mph /  12.9 km/h 29.0 mph /  46.7 km/h 47 % 0.0 in /  0 mm
15:47 10.3 °F /  -12.1 °C 0.3 °F /  -17.6 °C 1017.2 in /  34442.4 hPa NNE 6.4 mph /  10.3 km/h 29.0 mph /  46.7 km/h 50 % 0.0 in /  0 mm
15:52 10.7 °F /  -11.8 °C -0.5 °F /  -18.1 °C 1017.2 in /  34442.4 hPa North 11.3 mph /  18.2 km/h 29.0 mph /  46.7 km/h 46 % 0.0 in /  0 mm
16:02 11.0 °F /  -11.7 °C -0.5 °F /  -18.1 °C 1016.8 in /  34428.8 hPa NNW 17.7 mph /  28.5 km/h 19.3 mph /  31.1 km/h 45 % 0.0 in /  0 mm
16:12 9.9 °F /  -12.3 °C -0.3 °F /  -17.9 °C 1017.2 in /  34442.4 hPa NW 17.7 mph /  28.5 km/h 22.5 mph /  36.2 km/h 49 % 0.0 in /  0 mm
16:17 9.7 °F /  -12.4 °C -0.5 °F /  -18.1 °C 1017.2 in /  34442.4 hPa NE 16.1 mph /  25.9 km/h 25.7 mph /  41.4 km/h 49 % 0.0 in /  0 mm
16:22 9.6 °F /  -12.4 °C -0.6 °F /  -18.1 °C 1017.2 in /  34442.4 hPa NE 19.3 mph /  31.1 km/h 30.6 mph /  49.2 km/h 49 % 0.0 in /  0 mm
16:27 9.3 °F /  -12.6 °C -0.9 °F /  -18.3 °C 1017.2 in /  34442.4 hPa NNE 14.5 mph /  23.3 km/h 30.6 mph /  49.2 km/h 49 % 0.0 in /  0 mm
16:32 9.3 °F /  -12.6 °C -1.2 °F /  -18.4 °C 1017.2 in /  34442.4 hPa North 11.3 mph /  18.2 km/h 30.6 mph /  49.2 km/h 48 % 0.0 in /  0 mm
16:42 9.3 °F /  -12.6 °C -0.6 °F /  -18.1 °C 1016.8 in /  34428.8 hPa NNE 19.3 mph /  31.1 km/h 29.0 mph /  46.7 km/h 50 % 0.0 in /  0 mm
16:52 9.6 °F /  -12.4 °C -0.3 °F /  -17.9 °C 1016.8 in /  34428.8 hPa North 9.7 mph /  15.6 km/h 24.1 mph /  38.8 km/h 50 % 0.0 in /  0 mm
16:57 10.1 °F /  -12.2 °C -0.1 °F /  -17.8 °C 1016.8 in /  34428.8 hPa NNW 11.3 mph /  18.2 km/h 20.9 mph /  33.6 km/h 49 % 0.0 in /  0 mm
17:02 10.2 °F /  -12.1 °C -1.2 °F /  -18.4 °C 1016.8 in /  34428.8 hPa NE 9.7 mph /  15.6 km/h 20.9 mph /  33.6 km/h 45 % 0.0 in /  0 mm
17:12 10.6 °F /  -11.9 °C -0.5 °F /  -18.1 °C 1016.8 in /  34428.8 hPa NNE 4.8 mph /  7.7 km/h 29.0 mph /  46.7 km/h 46 % 0.0 in /  0 mm
17:17 10.5 °F /  -11.9 °C -0.6 °F /  -18.1 °C 1016.8 in /  34428.8 hPa NNE 4.8 mph /  7.7 km/h 25.7 mph /  41.4 km/h 46 % 0.0 in /  0 mm
17:22 10.7 °F /  -11.8 °C -1.4 °F /  -18.6 °C 1016.5 in /  34418.7 hPa NNW 4.8 mph /  7.7 km/h 25.7 mph /  41.4 km/h 43 % 0.0 in /  0 mm
17:27 10.9 °F /  -11.7 °C -1.5 °F /  -18.6 °C 1016.5 in /  34418.7 hPa NNE 6.4 mph /  10.3 km/h 17.7 mph /  28.5 km/h 42 % 0.0 in /  0 mm
17:32 11.1 °F /  -11.6 °C -1.7 °F /  -18.7 °C 1016.5 in /  34418.7 hPa NNE 8.0 mph /  12.9 km/h 16.1 mph /  25.9 km/h 41 % 0.0 in /  0 mm
17:42 10.9 °F /  -11.7 °C -1.2 °F /  -18.4 °C 1016.5 in /  34418.7 hPa NE 8.0 mph /  12.9 km/h 19.3 mph /  31.1 km/h 43 % 0.0 in /  0 mm
17:52 10.3 °F /  -12.1 °C -0.8 °F /  -18.2 °C 1016.8 in /  34428.8 hPa North 17.7 mph /  28.5 km/h 27.4 mph /  44.1 km/h 46 % 0.0 in /  0 mm
17:57 10.1 °F /  -12.2 °C -1.9 °F /  -18.8 °C 1016.5 in /  34418.7 hPa NNW 11.3 mph /  18.2 km/h 27.4 mph /  44.1 km/h 43 % 0.0 in /  0 mm
18:02 10.0 °F /  -12.2 °C -1.7 °F /  -18.7 °C 1016.8 in /  34428.8 hPa North 8.0 mph /  12.9 km/h 27.4 mph /  44.1 km/h 44 % 0.0 in /  0 mm
18:12 9.9 °F /  -12.3 °C -1.2 °F /  -18.4 °C 1016.8 in /  34428.8 hPa North 11.3 mph /  18.2 km/h 30.6 mph /  49.2 km/h 46 % 0.0 in /  0 mm
18:17 9.9 °F /  -12.3 °C -1.8 °F /  -18.8 °C 1016.8 in /  34428.8 hPa NNW 9.7 mph /  15.6 km/h 19.3 mph /  31.1 km/h 44 % 0.0 in /  0 mm
18:22 9.7 °F /  -12.4 °C -0.2 °F /  -17.9 °C 1016.8 in /  34428.8 hPa NNE 11.3 mph /  18.2 km/h 19.3 mph /  31.1 km/h 50 % 0.0 in /  0 mm
18:32 8.9 °F /  -12.8 °C 0.6 °F /  -17.4 °C 1017.2 in /  34442.4 hPa West 9.7 mph /  15.6 km/h 27.4 mph /  44.1 km/h 56 % 0.0 in /  0 mm
18:42 8.6 °F /  -13 °C 0.6 °F /  -17.4 °C 1017.2 in /  34442.4 hPa NNW 12.9 mph /  20.8 km/h 29.0 mph /  46.7 km/h 57 % 0.0 in /  0 mm
18:52 8.8 °F /  -12.9 °C 1.0 °F /  -17.2 °C 1017.2 in /  34442.4 hPa WNW 1.6 mph /  2.6 km/h 25.7 mph /  41.4 km/h 58 % 0.0 in /  0 mm
18:57 8.7 °F /  -12.9 °C 0.4 °F /  -17.6 °C 1017.2 in /  34442.4 hPa NW 16.1 mph /  25.9 km/h 25.7 mph /  41.4 km/h 56 % 0.0 in /  0 mm
19:02 8.3 °F /  -13.2 °C 0.5 °F /  -17.5 °C 1017.2 in /  34442.4 hPa WNW 6.4 mph /  10.3 km/h 25.7 mph /  41.4 km/h 58 % 0.0 in /  0 mm
19:12 8.1 °F /  -13.3 °C 1.0 °F /  -17.2 °C 1017.2 in /  34442.4 hPa WNW 6.4 mph /  10.3 km/h 22.5 mph /  36.2 km/h 61 % 0.0 in /  0 mm
19:17 8.4 °F /  -13.1 °C 0.8 °F /  -17.3 °C 1017.2 in /  34442.4 hPa North 6.4 mph /  10.3 km/h 20.9 mph /  33.6 km/h 59 % 0.0 in /  0 mm
19:22 8.7 °F /  -12.9 °C 0.9 °F /  -17.3 °C 1017.2 in /  34442.4 hPa NW 12.9 mph /  20.8 km/h 17.7 mph /  28.5 km/h 58 % 0.0 in /  0 mm
19:27 8.8 °F /  -12.9 °C 0.5 °F /  -17.5 °C 1017.2 in /  34442.4 hPa NW 8.0 mph /  12.9 km/h 17.7 mph /  28.5 km/h 56 % 0.0 in /  0 mm
19:32 8.9 °F /  -12.8 °C 0.1 °F /  -17.7 °C 1017.2 in /  34442.4 hPa NW 8.0 mph /  12.9 km/h 17.7 mph /  28.5 km/h 54 % 0.0 in /  0 mm
19:42 8.9 °F /  -12.8 °C 0.1 °F /  -17.7 °C 1017.2 in /  34442.4 hPa West 11.3 mph /  18.2 km/h 19.3 mph /  31.1 km/h 54 % 0.0 in /  0 mm
19:47 8.9 °F /  -12.8 °C 0.1 °F /  -17.7 °C 1017.2 in /  34442.4 hPa WNW 3.2 mph /  5.1 km/h 16.1 mph /  25.9 km/h 54 % 0.0 in /  0 mm
19:52 8.9 °F /  -12.8 °C 0.1 °F /  -17.7 °C 1017.2 in /  34442.4 hPa WNW 3.2 mph /  5.1 km/h 16.1 mph /  25.9 km/h 54 % 0.0 in /  0 mm
19:57 8.9 °F /  -12.8 °C -0.4 °F /  -18 °C 1017.5 in /  34452.6 hPa NW 8.0 mph /  12.9 km/h 14.5 mph /  23.3 km/h 52 % 0.0 in /  0 mm
20:02 8.8 °F /  -12.9 °C -0.8 °F /  -18.2 °C 1017.2 in /  34442.4 hPa NW 11.3 mph /  18.2 km/h 17.7 mph /  28.5 km/h 51 % 0.0 in /  0 mm
20:12 8.6 °F /  -13 °C -1.0 °F /  -18.3 °C 1017.5 in /  34452.6 hPa NW 4.8 mph /  7.7 km/h 22.5 mph /  36.2 km/h 51 % 0.0 in /  0 mm
20:17 8.5 °F /  -13.1 °C -1.1 °F /  -18.4 °C 1017.5 in /  34452.6 hPa NNW 6.4 mph /  10.3 km/h 20.9 mph /  33.6 km/h 51 % 0.0 in /  0 mm
20:22 8.4 °F /  -13.1 °C -1.2 °F /  -18.4 °C 1017.5 in /  34452.6 hPa North 6.4 mph /  10.3 km/h 20.9 mph /  33.6 km/h 51 % 0.0 in /  0 mm
20:32 7.8 °F /  -13.4 °C -1.4 °F /  -18.6 °C 1017.5 in /  34452.6 hPa NNW 14.5 mph /  23.3 km/h 19.3 mph /  31.1 km/h 52 % 0.0 in /  0 mm
20:37 7.6 °F /  -13.6 °C -1.6 °F /  -18.7 °C 1017.5 in /  34452.6 hPa NW 1.6 mph /  2.6 km/h 17.7 mph /  28.5 km/h 52 % 0.0 in /  0 mm
20:42 7.4 °F /  -13.7 °C -1.6 °F /  -18.7 °C 1017.8 in /  34462.7 hPa NW 3.2 mph /  5.1 km/h 14.5 mph /  23.3 km/h 53 % 0.0 in /  0 mm
20:47 7.3 °F /  -13.7 °C -1.4 °F /  -18.6 °C 1017.8 in /  34462.7 hPa NNW 6.4 mph /  10.3 km/h 14.5 mph /  23.3 km/h 54 % 0.0 in /  0 mm
20:57 6.9 °F /  -13.9 °C -0.3 °F /  -17.9 °C 1017.8 in /  34462.7 hPa North 6.4 mph /  10.3 km/h 17.7 mph /  28.5 km/h 60 % 0.0 in /  0 mm
21:02 6.7 °F /  -14.1 °C 0.2 °F /  -17.7 °C 1017.8 in /  34462.7 hPa NW 6.4 mph /  10.3 km/h 19.3 mph /  31.1 km/h 63 % 0.0 in /  0 mm
21:12 6.1 °F /  -14.4 °C 0.6 °F /  -17.4 °C 1017.8 in /  34462.7 hPa NW 8.0 mph /  12.9 km/h 19.3 mph /  31.1 km/h 68 % 0.0 in /  0 mm
21:17 5.8 °F /  -14.6 °C 0.6 °F /  -17.4 °C 1018.2 in /  34476.3 hPa WNW 6.4 mph /  10.3 km/h 14.5 mph /  23.3 km/h 69 % 0.0 in /  0 mm
21:22 5.6 °F /  -14.7 °C 0.8 °F /  -17.3 °C 1018.2 in /  34476.3 hPa NW 1.6 mph /  2.6 km/h 14.5 mph /  23.3 km/h 71 % 0.0 in /  0 mm
21:27 5.4 °F /  -14.8 °C 0.8 °F /  -17.3 °C 1018.2 in /  34476.3 hPa WNW 3.2 mph /  5.1 km/h 12.9 mph /  20.8 km/h 72 % 0.0 in /  0 mm
21:32 5.2 °F /  -14.9 °C 0.8 °F /  -17.3 °C 1018.2 in /  34476.3 hPa Calm   12.9 mph /  20.8 km/h 73 % 0.0 in /  0 mm
21:42 4.9 °F /  -15.1 °C 0.7 °F /  -17.4 °C 1018.2 in /  34476.3 hPa West 4.8 mph /  7.7 km/h 11.3 mph /  18.2 km/h 74 % 0.0 in /  0 mm
21:47 4.8 °F /  -15.1 °C 0.7 °F /  -17.4 °C 1018.5 in /  34486.4 hPa WNW 3.2 mph /  5.1 km/h 9.7 mph /  15.6 km/h 75 % 0.0 in /  0 mm
21:57 4.8 °F /  -15.1 °C 0.7 °F /  -17.4 °C 1018.5 in /  34486.4 hPa WNW 1.6 mph /  2.6 km/h 8.0 mph /  12.9 km/h 75 % 0.0 in /  0 mm
22:02 4.8 °F /  -15.1 °C 0.7 °F /  -17.4 °C 1018.5 in /  34486.4 hPa NW 1.6 mph /  2.6 km/h 8.0 mph /  12.9 km/h 75 % 0.0 in /  0 mm
22:07 4.8 °F /  -15.1 °C 0.7 °F /  -17.4 °C 1018.5 in /  34486.4 hPa Calm   8.0 mph /  12.9 km/h 75 % 0.0 in /  0 mm
22:17 4.8 °F /  -15.1 °C 0.9 °F /  -17.3 °C 1018.5 in /  34486.4 hPa NNW 1.6 mph /  2.6 km/h 4.8 mph /  7.7 km/h 76 % 0.0 in /  0 mm
22:22 4.8 °F /  -15.1 °C 1.1 °F /  -17.2 °C 1018.5 in /  34486.4 hPa NW 1.6 mph /  2.6 km/h 4.8 mph /  7.7 km/h 77 % 0.0 in /  0 mm
22:32 4.7 °F /  -15.2 °C 1.0 °F /  -17.2 °C 1018.5 in /  34486.4 hPa NW 3.2 mph /  5.1 km/h 4.8 mph /  7.7 km/h 77 % 0.0 in /  0 mm
22:37 4.7 °F /  -15.2 °C 1.0 °F /  -17.2 °C 1018.5 in /  34486.4 hPa NNW 3.2 mph /  5.1 km/h 6.4 mph /  10.3 km/h 77 % 0.0 in /  0 mm
22:42 4.7 °F /  -15.2 °C 1.0 °F /  -17.2 °C 1018.5 in /  34486.4 hPa WNW 3.2 mph /  5.1 km/h 8.0 mph /  12.9 km/h 77 % 0.0 in /  0 mm
22:47 4.7 °F /  -15.2 °C 1.0 °F /  -17.2 °C 1018.5 in /  34486.4 hPa NNW 3.2 mph /  5.1 km/h 9.7 mph /  15.6 km/h 77 % 0.0 in /  0 mm
22:52 4.7 °F /  -15.2 °C 1.0 °F /  -17.2 °C 1018.5 in /  34486.4 hPa WNW 8.0 mph /  12.9 km/h 9.7 mph /  15.6 km/h 77 % 0.0 in /  0 mm
22:57 4.7 °F /  -15.2 °C 1.0 °F /  -17.2 °C 1018.5 in /  34486.4 hPa WNW 1.6 mph /  2.6 km/h 9.7 mph /  15.6 km/h 77 % 0.0 in /  0 mm
23:02 4.6 °F /  -15.2 °C 0.9 °F /  -17.3 °C 1018.5 in /  34486.4 hPa NW 1.6 mph /  2.6 km/h 9.7 mph /  15.6 km/h 77 % 0.0 in /  0 mm
23:12 4.7 °F /  -15.2 °C 1.0 °F /  -17.2 °C 1018.5 in /  34486.4 hPa NNW 3.2 mph /  5.1 km/h 9.7 mph /  15.6 km/h 77 % 0.0 in /  0 mm
23:17 4.7 °F /  -15.2 °C 1.0 °F /  -17.2 °C 1018.5 in /  34486.4 hPa WNW 3.2 mph /  5.1 km/h 6.4 mph /  10.3 km/h 77 % 0.0 in /  0 mm
23:22 4.6 °F /  -15.2 °C 0.9 °F /  -17.3 °C 1018.5 in /  34486.4 hPa NW 1.6 mph /  2.6 km/h 8.0 mph /  12.9 km/h 77 % 0.0 in /  0 mm
23:32 4.4 °F /  -15.3 °C 0.9 °F /  -17.3 °C 1018.5 in /  34486.4 hPa NW 1.6 mph /  2.6 km/h 8.0 mph /  12.9 km/h 78 % 0.0 in /  0 mm
23:37 4.3 °F /  -15.4 °C 0.8 °F /  -17.3 °C 1018.5 in /  34486.4 hPa WNW 6.4 mph /  10.3 km/h 6.4 mph /  10.3 km/h 78 % 0.0 in /  0 mm
23:42 4.2 °F /  -15.4 °C 0.7 °F /  -17.4 °C 1018.5 in /  34486.4 hPa WNW 1.6 mph /  2.6 km/h 3.2 mph /  5.1 km/h 78 % 0.0 in /  0 mm
23:52 4.1 °F /  -15.5 °C 0.6 °F /  -17.4 °C 1018.5 in /  34486.4 hPa WNW 4.8 mph /  7.7 km/h 6.4 mph /  10.3 km/h 78 % 0.0 in /  0 mm
23:57 4.2 °F /  -15.4 °C 0.5 °F /  -17.5 °C 1018.5 in /  34486.4 hPa WNW 8.0 mph /  12.9 km/h 11.3 mph /  18.2 km/h 77 % 0.0 in /  0 mm
Meteo18
Compliments of Weather Underground - 4 mb

Script developed by  Jim McMurry - jmcmurry@mwt.net Adapted for the template by  Wim van der Kuil - Leuven-Template.eu

You find our weather info also at:

European Weather Network

Weather Underground

Equipment we use:

Weather-station
Davis Vue

Weather-program
Meteobridge

Weather-server
Raspberry PI 2 B+

Provider
1 and 1

Davis Vue

Meteobridge

Raspberry PI 2 B+

1 and 1